LJLJ/LJU METAR and TAF weather

Enter ICAO airport designator
Station Type Date Time Source
LJLJ METAR 2021/09/24 07:00 UTC NOAA

LJLJ 240700Z VRB02KT 9999 FEW003 11/09 Q1018 NOSIG


Station Type Date Time Source
LJLJ Decoded METAR 2021/09/24 07:00 UTC NOAA

Ljubljana / Brnik, Slovenia (LJLJ) 46-13N 014-29E 362M
Sep 24, 2021 - 03:00 AM EDT / 2021.09.24 0700 UTC
Wind: Variable at 2 MPH (2 KT):0
Visibility: greater than 7 mile(s):0
Sky conditions: mostly clear
Temperature: 51 F (11 C)
Dew Point: 48 F (9 C)
Relative Humidity: 87%
Pressure (altimeter): 30.06 in. Hg (1018 hPa)
ob: LJLJ 240700Z VRB02KT 9999 FEW003 11/09 Q1018 NOSIG
cycle: 7

Station Type Date Time Source
LJLJ TAF 2021/09/24 06:06 UTC NOAA

TAF LJLJ 240500Z 2406/2506 VRB02KT CAVOK PROB30
TEMPO 2411/2416 24010KT PROB30
TEMPO 2502/2506 9999 BKN010

Example: see airport list